Time;durP1;ratioP1;P1;durP2;ratioP2;P2;SDS_P1;SDS_P2;PMS_P1;PMS_P2;Temp;Humidity;BMP_temperature;BMP_pressure;BME280_temperature;BME280_humidity;BME280_pressure;Samples;Min_cycle;Max_cycle;Signal;HPM_P1;HPM_P2
2022/05/22 00:01:13;;;;;;;5.60;4.40;;;17.70;42.60;;;;;;5053155;28;20664;-34
2022/05/22 00:03:39;;;;;;;11.35;5.35;;;17.70;42.40;;;;;;5053101;28;20285;-34
2022/05/22 00:06:05;;;;;;;11.63;6.30;;;17.60;42.40;;;;;;5053088;28;20185;-34
2022/05/22 00:08:31;;;;;;;7.70;6.60;;;17.60;42.50;;;;;;5052594;28;20216;-34
2022/05/22 00:10:56;;;;;;;11.33;6.07;;;17.50;42.70;;;;;;5052912;28;20177;-34
2022/05/22 00:13:22;;;;;;;6.67;4.73;;;17.50;42.70;;;;;;5053045;28;20227;-34
2022/05/22 00:18:32;;;;;;;6.03;5.45;;;17.50;42.80;;;;;;5052746;28;20434;-34
2022/05/22 00:20:58;;;;;;;5.67;4.23;;;17.50;42.80;;;;;;5052408;28;20182;-34
2022/05/22 00:23:24;;;;;;;5.50;4.63;;;17.40;42.80;;;;;;5052697;28;20455;-33
2022/05/22 00:25:50;;;;;;;7.60;4.40;;;17.40;42.90;;;;;;5052787;28;20196;-34
2022/05/22 00:28:15;;;;;;;7.53;5.40;;;17.40;42.90;;;;;;5052481;28;20470;-34
2022/05/22 00:30:41;;;;;;;9.57;5.30;;;17.40;43.00;;;;;;5052607;28;20776;-34
2022/05/22 00:33:07;;;;;;;6.93;5.30;;;17.40;42.90;;;;;;5052607;28;20169;-34
2022/05/22 00:35:33;;;;;;;6.77;4.80;;;17.40;42.80;;;;;;5052446;28;20173;-34
2022/05/22 00:37:59;;;;;;;5.82;5.15;;;17.30;43.60;;;;;;5052025;28;20209;-34
2022/05/22 00:40:24;;;;;;;5.60;4.90;;;17.30;42.90;;;;;;5052587;28;20232;-34
2022/05/22 00:42:50;;;;;;;8.23;5.33;;;17.20;42.70;;;;;;5052264;28;20177;-34
2022/05/22 00:45:19;;;;;;;5.60;5.10;;;17.20;42.80;;;;;;5052359;28;20248;-34
2022/05/22 00:47:45;;;;;;;8.02;5.43;;;17.20;42.80;;;;;;5051990;28;20297;-34
2022/05/22 00:50:11;;;;;;;6.97;4.90;;;17.10;43.20;;;;;;5052273;28;20323;-34
2022/05/22 00:52:45;;;;;;;6.25;4.82;;;17.20;43.10;;;;;;5052432;28;20204;-34
2022/05/22 00:55:16;;;;;;;4.85;3.80;;;17.10;43.20;;;;;;5052428;28;20184;-34
2022/05/22 00:58:06;;;;;;;6.70;5.03;;;17.10;43.30;;;;;;5051981;28;20305;-34
2022/05/22 01:00:35;;;;;;;5.63;4.93;;;17.20;43.30;;;;;;5052567;28;20234;-34
2022/05/22 01:05:50;;;;;;;6.68;4.50;;;17.10;43.50;;;;;;5052349;28;20227;-34
2022/05/22 01:08:16;;;;;;;5.68;4.25;;;17.10;43.80;;;;;;5052021;28;20239;-34
2022/05/22 01:10:55;;;;;;;7.13;4.90;;;17.20;43.80;;;;;;5052027;28;20268;-33
2022/05/22 01:13:33;;;;;;;6.35;4.40;;;17.20;44.10;;;;;;5051895;28;20907;-34
2022/05/22 01:16:01;;;;;;;6.07;4.22;;;17.20;44.00;;;;;;5051998;28;20184;-34
2022/05/22 01:18:28;;;;;;;5.90;4.25;;;17.20;44.10;;;;;;5051595;28;20208;-34
2022/05/22 01:20:54;;;;;;;6.25;4.05;;;17.20;44.10;;;;;;5052030;28;20185;-34
2022/05/22 01:23:22;;;;;;;6.60;4.85;;;17.30;44.20;;;;;;5051897;28;20566;-34
2022/05/22 01:25:50;;;;;;;5.60;4.28;;;17.30;44.30;;;;;;5051771;28;20268;-33
2022/05/22 01:28:18;;;;;;;7.60;4.10;;;17.30;44.20;;;;;;5051531;28;20741;-34
2022/05/22 01:30:44;;;;;;;7.30;4.13;;;17.30;44.20;;;;;;5051946;28;20177;-34
2022/05/22 01:33:10;;;;;;;5.70;4.70;;;17.30;44.00;;;;;;5051949;28;20173;-34
2022/05/22 01:35:36;;;;;;;6.80;4.43;;;17.30;44.10;;;;;;5055911;28;20742;-34
2022/05/22 01:38:06;;;;;;;7.18;4.03;;;17.30;44.10;;;;;;5055386;28;20699;-34
2022/05/22 01:40:33;;;;;;;5.43;4.10;;;17.30;44.10;;;;;;5055745;28;20189;-34
2022/05/22 01:42:59;;;;;;;11.48;4.28;;;17.30;44.10;;;;;;5055874;28;20181;-34
2022/05/22 01:45:26;;;;;;;7.17;4.30;;;17.30;44.30;;;;;;5055757;28;20178;-34
2022/05/22 01:47:52;;;;;;;5.32;3.35;;;17.30;44.20;;;;;;5055488;28;20193;-34
2022/05/22 01:50:18;;;;;;;7.82;3.90;;;17.30;44.10;;;;;;5055657;28;20185;-33
2022/05/22 01:52:44;;;;;;;4.87;3.77;;;17.30;44.10;;;;;;5055521;28;20165;-35
2022/05/22 01:55:12;;;;;;;5.32;3.60;;;17.30;44.10;;;;;;5055727;28;20486;-35
2022/05/22 01:57:39;;;;;;;5.68;4.75;;;17.30;44.30;;;;;;5055257;28;20217;-35
2022/05/22 02:00:07;;;;;;;7.43;4.35;;;17.30;44.20;;;;;;5055516;28;20256;-35
2022/05/22 02:02:33;;;;;;;6.60;4.13;;;17.30;44.10;;;;;;5055605;28;20260;-34
2022/05/22 02:04:58;;;;;;;4.67;3.57;;;17.20;44.10;;;;;;5055345;28;20293;-35
2022/05/22 02:10:09;;;;;;;9.25;4.97;;;17.20;44.10;;;;;;5055641;28;20180;-34
2022/05/22 02:12:35;;;;;;;7.40;4.57;;;17.20;44.10;;;;;;5055285;28;20200;-34
2022/05/22 02:15:01;;;;;;;8.17;4.00;;;17.20;44.20;;;;;;5055221;28;20680;-34
2022/05/22 02:17:27;;;;;;;5.03;3.73;;;17.20;44.20;;;;;;5054778;28;20197;-34
2022/05/22 02:19:53;;;;;;;6.32;4.82;;;17.10;44.20;;;;;;5054976;28;20169;-34
2022/05/22 02:22:18;;;;;;;6.20;4.13;;;17.10;44.30;;;;;;5055192;28;20231;-34
2022/05/22 02:24:50;;;;;;;11.30;3.60;;;17.10;44.40;;;;;;5055059;28;20251;-34
2022/05/22 02:27:15;;;;;;;7.22;4.35;;;17.10;44.50;;;;;;5054841;28;20546;-34
2022/05/22 02:29:41;;;;;;;7.17;4.10;;;17.10;44.50;;;;;;5054875;28;20188;-34
2022/05/22 02:32:07;;;;;;;10.80;5.20;;;17.00;44.60;;;;;;5054822;28;20173;-34
2022/05/22 02:34:33;;;;;;;6.70;3.85;;;17.00;44.60;;;;;;5054689;28;20756;-34
2022/05/22 02:37:00;;;;;;;4.55;3.50;;;17.10;45.40;;;;;;5054516;28;20236;-34
2022/05/22 02:39:26;;;;;;;7.55;4.13;;;17.00;44.70;;;;;;5054764;28;20169;-34
2022/05/22 02:41:52;;;;;;;5.85;4.45;;;17.10;44.70;;;;;;5054781;28;20188;-34
2022/05/22 02:44:17;;;;;;;5.50;3.77;;;17.10;44.60;;;;;;5054004;28;20201;-35
2022/05/22 02:46:43;;;;;;;5.77;4.27;;;17.10;44.70;;;;;;5054451;28;20499;-34
2022/05/22 02:49:09;;;;;;;5.67;4.30;;;17.10;44.70;;;;;;5053290;28;20186;-34
2022/05/22 02:51:36;;;;;;;6.43;3.65;;;17.00;44.70;;;;;;5054603;28;20797;-34
2022/05/22 02:54:03;;;;;;;5.25;3.45;;;17.00;44.70;;;;;;5054596;28;20186;-33
2022/05/22 02:56:29;;;;;;;5.50;4.22;;;17.00;44.90;;;;;;5054594;28;20183;-34
2022/05/22 02:58:55;;;;;;;4.45;3.42;;;17.00;45.10;;;;;;5054112;28;20193;-34
2022/05/22 03:01:20;;;;;;;4.17;3.43;;;17.00;45.10;;;;;;5054140;28;20181;-34
2022/05/22 03:03:46;;;;;;;5.07;3.90;;;17.00;45.10;;;;;;5054069;28;20201;-34
2022/05/22 03:08:57;;;;;;;8.93;4.68;;;17.10;45.00;;;;;;5054310;28;20223;-34
2022/05/22 03:11:23;;;;;;;5.13;3.97;;;17.20;45.00;;;;;;5054088;28;20165;-34
2022/05/22 03:13:48;;;;;;;7.17;4.73;;;17.20;44.80;;;;;;5053975;28;20569;-35
2022/05/22 03:16:16;;;;;;;4.50;3.70;;;17.20;44.80;;;;;;5053924;28;20411;-35
2022/05/22 03:18:41;;;;;;;9.82;3.75;;;17.20;44.80;;;;;;5053690;28;20201;-34
2022/05/22 03:21:07;;;;;;;6.23;3.93;;;17.20;44.70;;;;;;5053864;28;20218;-34
2022/05/22 03:23:33;;;;;;;5.93;3.87;;;17.20;44.50;;;;;;5053875;28;20236;-34
2022/05/22 03:25:59;;;;;;;7.53;4.40;;;17.10;44.80;;;;;;5053911;28;20197;-34
2022/05/22 03:28:24;;;;;;;7.30;5.40;;;17.10;44.80;;;;;;5053488;28;20200;-34
2022/05/22 03:30:50;;;;;;;5.50;3.80;;;17.10;44.80;;;;;;5053708;28;20975;-34
2022/05/22 03:33:16;;;;;;;8.97;4.80;;;17.10;44.80;;;;;;5053898;28;20572;-35
2022/05/22 03:35:42;;;;;;;5.03;4.45;;;17.10;44.60;;;;;;5053606;28;20646;-35
2022/05/22 03:38:08;;;;;;;5.20;4.33;;;17.10;44.80;;;;;;5053251;28;20216;-35
2022/05/22 03:40:47;;;;;;;6.87;3.93;;;17.10;44.80;;;;;;5053600;28;20645;-34
2022/05/22 03:43:15;;;;;;;7.05;4.53;;;17.10;45.00;;;;;;5053341;28;20203;-34
2022/05/22 03:45:42;;;;;;;7.97;4.60;;;17.10;44.90;;;;;;5053657;28;20182;-34
2022/05/22 03:48:08;;;;;;;4.72;3.88;;;17.10;45.00;;;;;;5053136;28;20677;-35
2022/05/22 03:50:34;;;;;;;5.40;4.35;;;17.10;45.10;;;;;;5053386;28;20181;-35
2022/05/22 03:53:00;;;;;;;4.80;3.93;;;17.10;45.30;;;;;;5053316;28;20232;-34
2022/05/22 03:55:25;;;;;;;7.03;4.90;;;17.10;45.30;;;;;;5053240;28;20593;-34
2022/05/22 03:57:51;;;;;;;7.50;4.17;;;17.10;45.20;;;;;;5051976;28;20236;-35
2022/05/22 04:00:20;;;;;;;8.65;4.93;;;17.10;45.10;;;;;;5053360;28;20247;-34
2022/05/22 04:02:46;;;;;;;7.88;4.72;;;17.10;45.20;;;;;;5053253;28;20515;-34
2022/05/22 04:05:12;;;;;;;5.70;4.17;;;17.10;45.20;;;;;;5053189;28;20211;-34
2022/05/22 04:07:47;;;;;;;9.43;4.55;;;17.10;45.30;;;;;;5052709;28;20193;-34
2022/05/22 04:10:14;;;;;;;5.45;4.35;;;17.10;45.20;;;;;;5052926;28;20184;-34
2022/05/22 04:12:42;;;;;;;4.78;4.28;;;17.20;45.20;;;;;;5052845;28;20779;-34
2022/05/22 04:15:11;;;;;;;5.72;4.55;;;17.10;45.10;;;;;;5052870;28;20213;-34
2022/05/22 04:17:36;;;;;;;7.13;3.65;;;17.10;45.40;;;;;;5052529;28;20193;-34
2022/05/22 04:20:03;;;;;;;4.67;3.77;;;17.10;45.10;;;;;;5052795;28;20166;-34
2022/05/22 04:22:29;;;;;;;7.65;4.20;;;17.10;45.20;;;;;;5052774;28;20769;-34
2022/05/22 04:25:13;;;;;;;7.50;4.90;;;17.10;45.30;;;;;;5052506;28;20208;-34
2022/05/22 04:27:43;;;;;;;6.90;4.40;;;17.10;45.20;;;;;;5052339;28;20677;-34
2022/05/22 04:30:18;;;;;;;7.78;4.95;;;17.10;45.20;;;;;;5052532;28;20646;-34
2022/05/22 04:32:49;;;;;;;12.13;4.60;;;17.10;45.30;;;;;;5052614;28;20582;-33
2022/05/22 04:35:15;;;;;;;5.25;3.88;;;17.10;45.40;;;;;;5052556;28;20188;-34
2022/05/22 04:37:41;;;;;;;5.63;3.93;;;17.10;45.20;;;;;;5052123;28;20200;-34
2022/05/22 04:40:09;;;;;;;7.47;4.50;;;17.10;45.20;;;;;;5052443;28;20538;-34
2022/05/22 04:42:35;;;;;;;5.93;4.30;;;17.20;45.20;;;;;;5052501;28;20654;-34
2022/05/22 04:45:02;;;;;;;6.80;4.57;;;17.30;45.30;;;;;;5052299;28;20215;-34
2022/05/22 04:47:27;;;;;;;5.85;4.55;;;17.30;45.30;;;;;;5052051;28;20182;-35
2022/05/22 04:49:54;;;;;;;8.10;4.87;;;17.40;45.10;;;;;;5052146;28;20275;-34
2022/05/22 04:52:20;;;;;;;6.55;4.93;;;17.50;45.30;;;;;;5052455;28;20188;-34
2022/05/22 04:54:47;;;;;;;5.80;4.68;;;17.60;44.90;;;;;;5052170;28;20181;-34
2022/05/22 04:57:13;;;;;;;4.90;3.90;;;17.60;44.60;;;;;;5051865;28;20205;-34
2022/05/22 04:59:38;;;;;;;7.37;4.10;;;17.80;44.60;;;;;;5052222;28;20220;-34
2022/05/22 05:02:04;;;;;;;6.67;4.87;;;17.80;44.50;;;;;;5052191;28;20953;-35
2022/05/22 05:04:30;;;;;;;6.00;4.20;;;17.90;44.50;;;;;;5051943;28;20656;-35
2022/05/22 05:06:56;;;;;;;7.10;4.47;;;18.00;44.30;;;;;;5051798;28;20412;-35
2022/05/22 05:09:22;;;;;;;8.27;5.70;;;18.00;44.20;;;;;;5052086;28;20523;-34
2022/05/22 05:11:48;;;;;;;8.23;5.47;;;18.10;44.10;;;;;;5051984;28;20219;-34
2022/05/22 05:14:14;;;;;;;8.83;4.80;;;18.20;44.00;;;;;;5052037;28;20204;-34
2022/05/22 05:16:39;;;;;;;9.93;5.47;;;18.20;43.70;;;;;;5051917;28;20226;-34
2022/05/22 05:19:05;;;;;;;6.43;5.20;;;18.30;43.70;;;;;;5051601;28;20201;-34
2022/05/22 05:21:31;;;;;;;7.67;5.07;;;18.30;43.70;;;;;;5052153;28;20169;-34
2022/05/22 05:23:57;;;;;;;6.60;5.50;;;18.40;44.30;;;;;;5051792;28;20339;-34
2022/05/22 05:26:23;;;;;;;9.47;5.00;;;18.50;43.60;;;;;;5051999;28;20169;-35
2022/05/22 05:28:50;;;;;;;9.90;4.70;;;18.50;43.40;;;;;;5051698;28;20428;-34
2022/05/22 05:31:16;;;;;;;6.60;5.03;;;18.60;43.20;;;;;;5051963;28;20493;-35
2022/05/22 05:33:41;;;;;;;7.75;4.78;;;18.70;43.30;;;;;;5051755;28;20184;-35
2022/05/22 05:36:11;;;;;;;11.83;5.77;;;18.80;43.20;;;;;;5052024;28;20173;-34
2022/05/22 05:38:37;;;;;;;4.65;4.22;;;18.80;42.80;;;;;;5051294;28;20619;-34
2022/05/22 05:41:03;;;;;;;7.15;4.35;;;18.90;42.50;;;;;;5051783;28;20270;-35
2022/05/22 05:43:29;;;;;;;6.33;4.40;;;19.00;42.60;;;;;;5052045;28;20273;-35
2022/05/22 05:45:55;;;;;;;6.00;4.30;;;19.10;42.70;;;;;;5051638;28;20173;-36
2022/05/22 05:48:21;;;;;;;5.83;3.97;;;19.20;42.70;;;;;;5051320;28;20710;-35
2022/05/22 05:50:47;;;;;;;5.83;4.60;;;19.30;42.40;;;;;;5051840;28;20174;-35
2022/05/22 05:53:13;;;;;;;6.10;4.60;;;19.30;41.90;;;;;;5051523;28;20404;-34
2022/05/22 05:55:38;;;;;;;9.23;4.53;;;19.40;42.10;;;;;;5051666;28;20182;-35
2022/05/22 05:58:04;;;;;;;9.77;4.90;;;19.40;41.90;;;;;;5051364;28;20788;-35
2022/05/22 06:00:31;;;;;;;7.10;5.63;;;19.50;41.70;;;;;;5051479;28;20181;-34
2022/05/22 06:02:56;;;;;;;5.40;3.92;;;19.60;41.70;;;;;;5051294;28;20188;-34
2022/05/22 06:05:23;;;;;;;7.00;4.23;;;19.70;41.70;;;;;;5051654;28;20173;-35
2022/05/22 06:07:52;;;;;;;7.97;4.70;;;19.80;41.40;;;;;;5051347;28;20319;-35
2022/05/22 06:10:20;;;;;;;4.18;3.63;;;19.90;41.20;;;;;;5051378;28;20374;-34
2022/05/22 06:12:46;;;;;;;6.68;4.32;;;20.00;40.80;;;;;;5051490;28;20173;-34
2022/05/22 06:15:13;;;;;;;6.17;4.87;;;20.00;40.60;;;;;;5051341;28;20537;-35
2022/05/22 06:17:46;;;;;;;10.30;4.40;;;20.10;40.70;;;;;;5051078;28;20960;-35
2022/05/22 06:20:16;;;;;;;6.07;4.55;;;20.20;39.60;;;;;;5053170;28;20189;-35
2022/05/22 06:22:44;;;;;;;4.63;3.95;;;20.20;39.80;;;;;;5055124;28;20173;-35
2022/05/22 06:25:11;;;;;;;4.60;3.85;;;20.20;40.00;;;;;;5054895;28;20292;-35
2022/05/22 06:27:37;;;;;;;12.60;5.53;;;20.20;39.80;;;;;;5054538;28;20721;-35
2022/05/22 06:30:05;;;;;;;10.52;4.82;;;20.20;39.90;;;;;;5054810;28;20181;-35
2022/05/22 06:32:30;;;;;;;7.90;4.20;;;20.30;40.30;;;;;;5054973;28;20181;-36
2022/05/22 06:34:58;;;;;;;7.83;4.30;;;20.40;40.20;;;;;;5054898;28;20534;-35
2022/05/22 06:37:24;;;;;;;10.52;5.82;;;20.60;39.20;;;;;;5054542;28;20247;-34
2022/05/22 06:39:52;;;;;;;5.50;3.15;;;20.60;38.90;;;;;;5054749;28;20211;-34
2022/05/22 06:42:37;;;;;;;10.75;4.40;;;20.60;38.20;;;;;;5054586;28;20569;-34
2022/05/22 06:45:03;;;;;;;5.47;3.35;;;20.60;37.90;;;;;;5054716;28;20209;-35
2022/05/22 06:47:31;;;;;;;3.90;2.75;;;20.50;38.10;;;;;;5054470;28;20193;-34
2022/05/22 06:50:03;;;;;;;4.25;3.10;;;20.50;38.20;;;;;;5054459;28;20261;-34
2022/05/22 06:52:31;;;;;;;4.50;2.90;;;20.50;38.20;;;;;;5054536;28;20170;-34
2022/05/22 06:54:58;;;;;;;6.82;3.40;;;20.60;38.30;;;;;;5054346;28;20436;-34
2022/05/22 06:57:23;;;;;;;5.03;3.05;;;20.70;37.40;;;;;;5054336;28;20197;-34
2022/05/22 06:59:54;;;;;;;4.60;3.03;;;20.80;37.90;;;;;;5054332;28;20204;-34
2022/05/22 07:02:19;;;;;;;4.65;2.70;;;20.80;37.60;;;;;;5054431;28;20261;-34
2022/05/22 07:04:45;;;;;;;5.93;2.93;;;20.90;37.90;;;;;;5054766;28;20296;-34
2022/05/22 07:07:11;;;;;;;3.23;2.10;;;20.90;37.10;;;;;;5053907;28;20588;-35
2022/05/22 07:09:37;;;;;;;5.10;2.80;;;21.00;37.70;;;;;;5054042;28;20181;-34
2022/05/22 07:12:10;;;;;;;4.60;3.00;;;21.10;37.40;;;;;;5054085;28;20268;-34
2022/05/22 07:14:37;;;;;;;6.78;2.97;;;21.20;37.80;;;;;;5054189;28;20426;-35
2022/05/22 07:17:04;;;;;;;7.90;2.83;;;21.30;37.40;;;;;;5053844;28;20191;-35
2022/05/22 07:19:34;;;;;;;5.32;2.90;;;21.40;37.00;;;;;;5053891;28;20227;-35
2022/05/22 07:22:01;;;;;;;4.40;3.00;;;21.50;36.20;;;;;;5053816;28;20186;-34
2022/05/22 07:24:28;;;;;;;6.40;2.60;;;21.60;37.10;;;;;;5053945;28;20288;-35
2022/05/22 07:26:54;;;;;;;3.83;2.80;;;21.60;37.20;;;;;;5053520;28;20292;-35
2022/05/22 07:29:19;;;;;;;5.10;3.43;;;21.80;37.30;;;;;;5054231;28;20431;-34
2022/05/22 07:31:45;;;;;;;4.03;2.40;;;22.00;37.20;;;;;;5052581;28;20519;-35
2022/05/22 07:34:11;;;;;;;3.27;2.53;;;22.10;37.00;;;;;;5053634;28;20264;-34
2022/05/22 07:36:36;;;;;;;5.23;2.43;;;22.20;35.80;;;;;;5053433;28;20184;-34
2022/05/22 07:39:04;;;;;;;8.03;2.50;;;22.30;36.60;;;;;;5053133;28;20217;-35
2022/05/22 07:41:31;;;;;;;4.07;2.30;;;22.40;36.10;;;;;;5053557;28;20170;-34
2022/05/22 07:43:59;;;;;;;3.43;2.43;;;22.50;36.20;;;;;;5053510;28;20520;-34
2022/05/22 07:46:26;;;;;;;3.97;2.87;;;22.60;35.90;;;;;;5053358;28;20415;-35
2022/05/22 07:48:52;;;;;;;4.40;2.20;;;22.50;34.40;;;;;;5053094;28;20427;-34
2022/05/22 07:51:18;;;;;;;2.50;1.60;;;22.40;34.70;;;;;;5053520;28;20419;-34
2022/05/22 07:53:44;;;;;;;7.97;3.77;;;22.30;35.40;;;;;;5053177;28;20518;-35
2022/05/22 07:56:12;;;;;;;5.20;2.37;;;22.40;35.40;;;;;;5053300;28;20447;-35
2022/05/22 07:58:39;;;;;;;4.50;2.30;;;22.50;36.20;;;;;;5052964;28;20435;-34
2022/05/22 08:01:05;;;;;;;3.13;1.83;;;22.70;35.20;;;;;;5053206;28;20412;-35
2022/05/22 08:03:32;;;;;;;9.57;2.27;;;22.80;35.00;;;;;;5052899;28;20486;-34
2022/05/22 08:05:58;;;;;;;4.73;2.40;;;22.70;32.60;;;;;;5053032;28;20477;-35
2022/05/22 08:08:24;;;;;;;9.53;2.70;;;22.60;34.10;;;;;;5052667;28;20468;-35
2022/05/22 08:10:53;;;;;;;2.27;1.67;;;22.50;34.30;;;;;;5053121;28;20419;-34
2022/05/22 08:13:20;;;;;;;3.43;1.70;;;22.40;33.70;;;;;;5053038;28;20438;-35
2022/05/22 08:15:45;;;;;;;2.47;1.50;;;22.40;33.50;;;;;;5052711;28;20888;-34
2022/05/22 08:18:11;;;;;;;3.27;1.57;;;22.20;32.70;;;;;;5052442;28;20523;-34
2022/05/22 08:20:39;;;;;;;2.70;2.20;;;22.10;33.50;;;;;;5052902;28;20535;-35
2022/05/22 08:23:12;;;;;;;3.90;2.83;;;22.10;33.40;;;;;;5052656;28;21024;-34
2022/05/22 08:25:37;;;;;;;3.20;2.23;;;22.30;34.30;;;;;;5052651;28;20407;-34
2022/05/22 08:28:04;;;;;;;2.83;1.90;;;22.50;34.40;;;;;;5052357;28;20439;-35
2022/05/22 08:30:30;;;;;;;4.93;1.80;;;22.70;33.40;;;;;;5052578;28;20173;-35
2022/05/22 08:32:56;;;;;;;7.20;2.20;;;22.90;33.90;;;;;;5052457;28;20423;-35
2022/05/22 08:35:25;;;;;;;2.13;1.70;;;23.10;31.40;;;;;;5052672;28;20503;-35
2022/05/22 08:37:51;;;;;;;5.80;1.60;;;23.10;31.80;;;;;;5052288;28;20534;-35
2022/05/22 08:40:19;;;;;;;2.67;1.53;;;23.20;32.50;;;;;;5052544;28;20849;-35
2022/05/22 08:43:03;;;;;;;2.70;2.20;;;23.20;32.30;;;;;;5051871;28;20428;-35
2022/05/22 08:45:38;;;;;;;4.40;2.13;;;23.00;32.10;;;;;;5052782;28;20419;-34
2022/05/22 08:48:34;;;;;;;4.53;2.20;;;22.80;32.10;;;;;;5052094;28;20420;-35
2022/05/22 08:51:01;;;;;;;3.33;1.90;;;22.70;32.20;;;;;;5048345;28;20416;-34
2022/05/22 08:53:39;;;;;;;4.40;1.97;;;22.50;32.00;;;;;;5052176;28;20207;-34
2022/05/22 08:59:32;;;;;;;4.00;2.10;;;22.60;31.70;;;;;;5052253;28;21001;-35
2022/05/22 09:02:22;;;;;;;2.47;1.60;;;22.60;32.40;;;;;;5009394;28;20445;-35
2022/05/22 09:05:04;;;;;;;2.17;1.63;;;22.60;32.20;;;;;;5051940;28;20451;-34
2022/05/22 09:07:51;;;;;;;3.70;1.47;;;22.60;31.80;;;;;;5051822;28;20424;-35
2022/05/22 09:10:41;;;;;;;2.40;1.17;;;22.70;32.40;;;;;;5051873;28;20408;-35
2022/05/22 09:13:27;;;;;;;4.90;2.33;;;22.90;32.40;;;;;;5051888;28;20403;-35
2022/05/22 09:16:13;;;;;;;4.37;2.20;;;23.30;33.40;;;;;;5052095;28;20400;-34
2022/05/22 09:18:51;;;;;;;3.23;1.60;;;23.60;32.70;;;;;;5051533;28;20432;-35
2022/05/22 09:21:51;;;;;;;2.77;1.43;;;23.70;31.70;;;;;;5052015;28;20412;-34
2022/05/22 09:24:57;;;;;;;2.20;1.47;;;23.60;31.20;;;;;;5051816;28;20487;-34
2022/05/22 09:27:41;;;;;;;2.67;1.63;;;23.60;31.20;;;;;;5051884;28;20451;-35
2022/05/22 09:30:10;;;;;;;3.30;1.93;;;23.50;31.00;;;;;;5051849;28;20888;-34
2022/05/22 09:32:53;;;;;;;4.93;1.77;;;23.50;30.40;;;;;;5051732;28;21048;-35
2022/05/22 09:35:37;;;;;;;2.97;2.00;;;23.50;30.50;;;;;;5051581;28;20399;-34
2022/05/22 09:38:29;;;;;;;3.60;2.23;;;23.60;31.30;;;;;;5051314;28;20458;-35
2022/05/22 09:41:16;;;;;;;3.73;2.60;;;23.80;31.40;;;;;;5051678;28;20443;-34
2022/05/22 09:43:52;;;;;;;4.70;2.20;;;23.80;30.70;;;;;;5051635;28;20781;-34
2022/05/22 09:46:44;;;;;;;5.40;2.10;;;23.80;29.90;;;;;;5051880;28;20837;-34
2022/05/22 09:49:31;;;;;;;4.57;2.10;;;24.10;31.30;;;;;;5051805;28;21017;-34
2022/05/22 09:52:17;;;;;;;3.60;1.80;;;24.20;30.80;;;;;;5051491;28;20892;-35
2022/05/22 09:55:04;;;;;;;4.10;1.87;;;24.30;31.00;;;;;;5052552;28;20912;-35
2022/05/22 09:57:36;;;;;;;3.70;2.63;;;24.30;29.40;;;;;;5055219;28;20826;-34
2022/05/22 10:00:10;;;;;;;2.73;1.60;;;24.20;29.60;;;;;;5055319;28;20418;-34
2022/05/22 10:03:14;;;;;;;4.63;2.00;;;24.10;28.80;;;;;;5055278;28;20946;-34
2022/05/22 10:05:54;;;;;;;4.30;1.57;;;24.10;30.50;;;;;;5054805;28;20470;-34
2022/05/22 10:08:44;;;;;;;2.33;0.90;;;24.30;31.10;;;;;;5055094;28;20949;-34
2022/05/22 10:11:18;;;;;;;2.80;1.87;;;24.60;31.60;;;;;;5055454;28;20400;-34
2022/05/22 10:13:52;;;;;;;4.07;1.47;;;24.90;29.70;;;;;;5055391;28;20403;-35
2022/05/22 10:16:25;;;;;;;2.47;1.67;;;25.00;29.60;;;;;;5055297;28;20490;-35
2022/05/22 10:19:15;;;;;;;3.20;1.27;;;25.10;27.40;;;;;;5054741;28;20420;-34
2022/05/22 10:22:17;;;;;;;3.03;0.90;;;25.10;28.10;;;;;;5055014;28;20499;-34
2022/05/22 10:24:45;;;;;;;2.53;1.33;;;25.10;29.00;;;;;;5054833;28;20484;-35
2022/05/22 10:27:41;;;;;;;5.07;2.17;;;24.90;27.40;;;;;;5054673;28;20408;-35
2022/05/22 10:30:16;;;;;;;5.83;1.40;;;24.70;27.20;;;;;;5054882;28;20422;-34
2022/05/22 10:32:45;;;;;;;5.50;1.20;;;24.50;27.40;;;;;;5054824;28;20411;-35
2022/05/22 10:35:18;;;;;;;4.23;1.30;;;24.40;27.40;;;;;;5054869;28;20452;-35
2022/05/22 10:37:52;;;;;;;2.00;1.20;;;24.30;26.50;;;;;;5054339;28;20536;-35
2022/05/22 10:40:21;;;;;;;3.33;1.80;;;24.40;26.90;;;;;;5054652;28;20411;-35
2022/05/22 10:42:53;;;;;;;4.97;1.40;;;24.40;27.50;;;;;;5054766;28;20408;-34
2022/05/22 10:45:34;;;;;;;2.83;1.60;;;24.70;29.00;;;;;;5054688;28;20534;-34
2022/05/22 10:48:26;;;;;;;3.60;1.33;;;25.00;27.60;;;;;;5054226;28;20935;-34
2022/05/22 10:50:57;;;;;;;2.13;1.30;;;25.20;27.20;;;;;;5054525;28;20547;-35
2022/05/22 10:53:37;;;;;;;2.13;1.13;;;25.40;28.60;;;;;;5054683;28;20729;-34
2022/05/22 10:56:14;;;;;;;2.17;1.47;;;25.70;28.10;;;;;;5054532;28;20422;-34
2022/05/22 10:58:51;;;;;;;2.73;1.93;;;25.90;26.70;;;;;;5054064;28;20435;-35
2022/05/22 11:01:21;;;;;;;3.10;1.13;;;25.90;26.80;;;;;;5054566;28;20404;-35
2022/05/22 11:03:47;;;;;;;1.80;1.30;;;25.80;25.90;;;;;;5054136;28;20812;-35
2022/05/22 11:06:22;;;;;;;4.37;1.60;;;25.70;26.10;;;;;;5054314;28;20404;-35
2022/05/22 11:08:56;;;;;;;4.23;1.70;;;25.60;26.30;;;;;;5053938;28;20454;-34
2022/05/22 11:11:31;;;;;;;3.03;1.30;;;25.50;27.10;;;;;;5054403;28;20756;-34
2022/05/22 11:14:15;;;;;;;2.83;1.60;;;25.60;27.10;;;;;;5054261;28;20495;-35
2022/05/22 11:16:41;;;;;;;2.57;1.40;;;25.70;26.90;;;;;;5054089;28;20982;-34
2022/05/22 11:19:26;;;;;;;2.20;1.27;;;25.60;27.50;;;;;;5053653;28;20519;-35
2022/05/22 11:22:07;;;;;;;7.90;1.60;;;25.60;27.50;;;;;;5054165;28;20415;-34
2022/05/22 11:24:58;;;;;;;5.03;2.13;;;25.50;27.40;;;;;;5053753;28;20486;-35
2022/05/22 11:27:50;;;;;;;3.27;1.57;;;25.50;26.70;;;;;;5053595;28;20434;-35
2022/05/22 11:30:46;;;;;;;3.33;1.53;;;25.50;25.70;;;;;;5053988;28;20403;-34
2022/05/22 11:33:46;;;;;;;3.93;1.50;;;25.70;27.50;;;;;;5053683;28;20440;-34
2022/05/22 11:36:31;;;;;;;2.70;2.07;;;25.90;26.50;;;;;;5053517;28;20935;-34
2022/05/22 11:39:26;;;;;;;3.93;1.60;;;26.20;27.50;;;;;;5053305;28;20436;-35
2022/05/22 11:42:01;;;;;;;2.53;1.33;;;26.40;25.80;;;;;;5053613;28;20396;-35
2022/05/22 11:44:35;;;;;;;3.20;1.67;;;26.50;25.90;;;;;;5053345;28;20451;-35
2022/05/22 11:47:33;;;;;;;5.33;1.63;;;26.70;26.20;;;;;;5053304;28;20403;-34
2022/05/22 11:50:17;;;;;;;2.73;1.70;;;26.90;23.90;;;;;;5053553;28;20430;-35
2022/05/22 11:53:07;;;;;;;3.23;1.30;;;26.90;25.70;;;;;;5053219;28;20400;-35
2022/05/22 11:56:00;;;;;;;4.47;1.73;;;27.00;26.30;;;;;;5053317;28;20400;-35
2022/05/22 11:58:34;;;;;;;2.70;1.63;;;26.90;25.50;;;;;;5053112;28;20416;-35
2022/05/22 12:01:11;;;;;;;2.00;1.20;;;26.70;26.10;;;;;;5053184;28;20623;-35
2022/05/22 12:03:41;;;;;;;2.10;1.10;;;26.60;26.40;;;;;;5053284;28;20447;-35
2022/05/22 12:06:17;;;;;;;2.93;1.30;;;26.70;26.40;;;;;;5053195;28;20459;-35
2022/05/22 12:09:08;;;;;;;2.40;1.10;;;26.80;26.20;;;;;;5052874;28;20427;-35
2022/05/22 12:12:12;;;;;;;1.90;1.23;;;26.90;25.70;;;;;;5055138;28;20410;-34
2022/05/22 12:14:56;;;;;;;2.50;0.80;;;26.90;25.80;;;;;;5056086;28;20407;-34
2022/05/22 12:17:49;;;;;;;2.70;1.37;;;27.10;26.10;;;;;;5051753;28;20424;-35
2022/05/22 12:20:47;;;;;;;3.90;1.67;;;27.20;24.50;;;;;;5052991;28;20400;-35
2022/05/22 12:23:21;;;;;;;4.60;1.27;;;27.20;25.50;;;;;;5008202;28;20777;-35
2022/05/22 12:25:58;;;;;;;2.70;1.80;;;27.20;25.40;;;;;;5052694;28;20408;-35
2022/05/22 12:28:39;;;;;;;5.03;1.60;;;27.30;24.80;;;;;;5052323;28;20427;-35
2022/05/22 12:31:30;;;;;;;4.27;1.37;;;27.50;24.70;;;;;;5052830;28;20493;-35
2022/05/22 12:34:01;;;;;;;3.93;1.50;;;27.40;22.00;;;;;;5052629;28;20400;-35
2022/05/22 12:36:29;;;;;;;5.23;2.13;;;27.30;23.50;;;;;;5052467;28;20942;-35
2022/05/22 12:39:06;;;;;;;3.20;1.47;;;27.40;24.40;;;;;;5052085;28;20443;-35
2022/05/22 12:41:39;;;;;;;2.10;1.60;;;27.50;25.10;;;;;;5052667;28;20915;-35
2022/05/22 12:44:05;;;;;;;2.93;1.53;;;27.40;25.30;;;;;;5052498;28;20462;-35
2022/05/22 12:46:33;;;;;;;3.70;1.93;;;27.30;24.80;;;;;;5052389;28;20404;-35
2022/05/22 12:49:28;;;;;;;4.60;2.07;;;27.40;24.40;;;;;;5052092;28;20426;-35
2022/05/22 12:52:06;;;;;;;7.00;1.70;;;27.50;25.20;;;;;;5052412;28;20395;-34
2022/05/22 12:54:34;;;;;;;3.30;1.27;;;27.70;25.00;;;;;;5052345;28;20780;-35
2022/05/22 12:57:16;;;;;;;3.10;1.10;;;27.90;24.80;;;;;;5051895;28;20404;-35
2022/05/22 13:00:18;;;;;;;2.17;1.33;;;27.90;23.40;;;;;;5052055;28;20975;-35
2022/05/22 13:02:46;;;;;;;2.40;1.30;;;27.70;23.80;;;;;;5051523;28;20465;-35
2022/05/22 13:05:33;;;;;;;1.90;1.07;;;27.70;24.00;;;;;;5051956;28;20502;-35
2022/05/22 13:07:58;;;;;;;3.60;1.60;;;27.90;24.40;;;;;;5051859;28;20439;-35
2022/05/22 13:10:44;;;;;;;2.17;0.90;;;27.90;24.90;;;;;;5051958;28;20403;-35
2022/05/22 13:13:14;;;;;;;2.87;1.47;;;28.00;25.40;;;;;;5106908;22;20220;-32
2022/05/22 13:16:08;;;;;;;2.60;1.40;;;27.90;24.80;;;;;;5090718;28;20422;-32
2022/05/22 13:18:49;;;;;;;2.00;1.40;;;27.90;24.60;;;;;;5093102;28;20873;-32
2022/05/22 13:21:39;;;;;;;2.23;1.33;;;27.60;24.40;;;;;;5092203;28;20455;-32
2022/05/22 13:24:16;;;;;;;2.43;1.00;;;27.30;25.20;;;;;;5092295;28;20449;-32